Green Garnet — 3FEH6 — position and weather

sailwx.info

Track history (hours):
 
Tides and Currents Weather Stations Pressure Air Temp Water Temp Dewpoint Dewpoint Depression Visibility Wind Speed Wind Dir Waves Ship Positions

Green Garnet

Last reported at 2016-Aug-23 23:04 UTC. Time now 2016-Aug-29 13:01 UTC.
Position N 22°06' E 114°27'.

Length 209 m; draft 7.4 m.

Type: Cargo ship. MMSI: 356345000.

Date/timePositionNaut miles runAvg speedWind from/ knotsBaromVisibWave heightAir tempDewpointWater temp
2016-Aug-23 23:04N 22°06' E 114°27'612.3
2016-Aug-23 22:33N 22°07' E 114°20'2 0.1
2016-Aug-23 10:33N 22°08' E 114°22'25212.4
2016-Aug-22 14:13N 23°49' E 118°32'4512.3
2016-Aug-22 10:33N 24°17' E 119°10'1413.6
2016-Aug-22 09:33N 24°24' E 119°23'1313.1
2016-Aug-22 08:32N 24°34' E 119°33'  
2016-Aug-19 11:28N 35°15' E 119°45'1010.5
2016-Aug-19 10:33N 35°20' E 119°34'3 2.4
2016-Aug-19 09:22N 35°22' E 119°32'0 0.0
2016-Aug-19 08:22N 35°22' E 119°32'0 0.0
2016-Aug-19 07:16N 35°22' E 119°32'0 0.0
2016-Aug-19 06:28N 35°22' E 119°32'0 0.0
2016-Aug-19 05:28N 35°22' E 119°32'0 0.0
2016-Aug-19 04:28N 35°22' E 119°32'0 0.0
2016-Aug-19 03:28N 35°22' E 119°32'0 0.0
2016-Aug-19 02:23N 35°22' E 119°32'0 0.1
2016-Aug-19 01:28N 35°22' E 119°32'0 0.0
2016-Aug-19 00:28N 35°22' E 119°32'0 0.0
2016-Aug-18 11:16N 35°22' E 119°32'0 0.1
2016-Aug-18 10:28N 35°22' E 119°32'0 0.0
2016-Aug-18 09:28N 35°22' E 119°32'0 0.0
2016-Aug-18 08:16N 35°22' E 119°32'0 0.1
2016-Aug-18 07:28N 35°22' E 119°32'0 0.0
2016-Aug-18 06:16N 35°22' E 119°32'0 0.0
2016-Aug-18 05:28N 35°22' E 119°32'0 0.0
2016-Aug-18 04:28N 35°22' E 119°32'0 0.0
2016-Aug-18 03:22N 35°22' E 119°32'0 0.1
2016-Aug-18 02:28N 35°22' E 119°32'0 0.0
2016-Aug-18 01:22N 35°22' E 119°32'0 0.1
2016-Aug-18 00:28N 35°22' E 119°32'0 0.0
2016-Aug-17 23:28N 35°22' E 119°32'0 0.0
2016-Aug-17 22:28N 35°22' E 119°32'0 0.0
2016-Aug-17 21:28N 35°22' E 119°32'0 0.0
2016-Aug-17 20:28N 35°22' E 119°32'0 0.0
2016-Aug-17 19:28N 35°22' E 119°32'0 0.0
2016-Aug-17 18:28N 35°22' E 119°32'0 0.1
2016-Aug-17 17:28N 35°22' E 119°32'0 0.1
2016-Aug-17 16:28N 35°22' E 119°32'0 0.0
2016-Aug-17 15:28N 35°22' E 119°32'0 0.0
2016-Aug-17 14:33N 35°22' E 119°32'6 5.5
2016-Aug-17 13:33N 35°19' E 119°38'5 4.7
2016-Aug-17 12:33N 35°19' E 119°43'0 0.0
2016-Aug-17 11:27N 35°19' E 119°43'0 0.2
2016-Aug-17 10:33N 35°18' E 119°43'0 0.1
2016-Aug-17 09:33N 35°18' E 119°43'0 0.1
2016-Aug-17 08:33N 35°18' E 119°43'0 0.0
2016-Aug-17 07:33N 35°18' E 119°43'0 0.0
2016-Aug-17 06:15N 35°18' E 119°43'0 0.2
2016-Aug-17 05:33N 35°19' E 119°43'0 0.1
2016-Aug-17 04:21N 35°19' E 119°43'0 0.1
2016-Aug-17 03:33N 35°19' E 119°43'0 0.0
2016-Aug-17 02:33N 35°19' E 119°43'0 0.0
2016-Aug-17 00:33N 35°19' E 119°43'0 0.2
2016-Aug-16 23:33N 35°18' E 119°43'0 0.1
2016-Aug-16 22:33N 35°18' E 119°43'0 0.0
2016-Aug-16 20:33N 35°18' E 119°43'0 0.0
2016-Aug-16 18:33N 35°18' E 119°43'0 0.1
2016-Aug-16 17:15N 35°19' E 119°43'0 0.4
2016-Aug-16 16:33N 35°19' E 119°43'7 6.6
2016-Aug-16 15:33N 35°15' E 119°50'  
Track history (hours):
 
Tides and Currents Weather Stations Pressure Air Temp Water Temp Dewpoint Dewpoint Depression Visibility Wind Speed Wind Dir Waves Ship Positions

Green Garnet

Last reported at 2016-Aug-23 23:04 UTC. Time now 2016-Aug-29 13:01 UTC.
Position N 22°06' E 114°27'.

Length 209 m; draft 7.4 m.

Type: Cargo ship. MMSI: 356345000.

Date/timePositionNaut miles runAvg speedWind from/ knotsBaromVisibWave heightAir tempDewpointWater temp
2016-Aug-23 23:04N 22°06' E 114°27'612.3
2016-Aug-23 22:33N 22°07' E 114°20'2 0.1
2016-Aug-23 10:33N 22°08' E 114°22'25212.4
2016-Aug-22 14:13N 23°49' E 118°32'4512.3
2016-Aug-22 10:33N 24°17' E 119°10'1413.6
2016-Aug-22 09:33N 24°24' E 119°23'1313.1
2016-Aug-22 08:32N 24°34' E 119°33'  
2016-Aug-19 11:28N 35°15' E 119°45'1010.5
2016-Aug-19 10:33N 35°20' E 119°34'3 2.4
2016-Aug-19 09:22N 35°22' E 119°32'0 0.0
2016-Aug-19 08:22N 35°22' E 119°32'0 0.0
2016-Aug-19 07:16N 35°22' E 119°32'0 0.0
2016-Aug-19 06:28N 35°22' E 119°32'0 0.0
2016-Aug-19 05:28N 35°22' E 119°32'0 0.0
2016-Aug-19 04:28N 35°22' E 119°32'0 0.0
2016-Aug-19 03:28N 35°22' E 119°32'0 0.0
2016-Aug-19 02:23N 35°22' E 119°32'0 0.1
2016-Aug-19 01:28N 35°22' E 119°32'0 0.0
2016-Aug-19 00:28N 35°22' E 119°32'0 0.0
2016-Aug-18 11:16N 35°22' E 119°32'0 0.1
2016-Aug-18 10:28N 35°22' E 119°32'0 0.0
2016-Aug-18 09:28N 35°22' E 119°32'0 0.0
2016-Aug-18 08:16N 35°22' E 119°32'0 0.1
2016-Aug-18 07:28N 35°22' E 119°32'0 0.0
2016-Aug-18 06:16N 35°22' E 119°32'0 0.0
2016-Aug-18 05:28N 35°22' E 119°32'0 0.0
2016-Aug-18 04:28N 35°22' E 119°32'0 0.0
2016-Aug-18 03:22N 35°22' E 119°32'0 0.1
2016-Aug-18 02:28N 35°22' E 119°32'0 0.0
2016-Aug-18 01:22N 35°22' E 119°32'0 0.1
2016-Aug-18 00:28N 35°22' E 119°32'0 0.0
2016-Aug-17 23:28N 35°22' E 119°32'0 0.0
2016-Aug-17 22:28N 35°22' E 119°32'0 0.0
2016-Aug-17 21:28N 35°22' E 119°32'0 0.0
2016-Aug-17 20:28N 35°22' E 119°32'0 0.0
2016-Aug-17 19:28N 35°22' E 119°32'0 0.0
2016-Aug-17 18:28N 35°22' E 119°32'0 0.1
2016-Aug-17 17:28N 35°22' E 119°32'0 0.1
2016-Aug-17 16:28N 35°22' E 119°32'0 0.0
2016-Aug-17 15:28N 35°22' E 119°32'0 0.0
2016-Aug-17 14:33N 35°22' E 119°32'6 5.5
2016-Aug-17 13:33N 35°19' E 119°38'5 4.7
2016-Aug-17 12:33N 35°19' E 119°43'0 0.0
2016-Aug-17 11:27N 35°19' E 119°43'0 0.2
2016-Aug-17 10:33N 35°18' E 119°43'0 0.1
2016-Aug-17 09:33N 35°18' E 119°43'0 0.1
2016-Aug-17 08:33N 35°18' E 119°43'0 0.0
2016-Aug-17 07:33N 35°18' E 119°43'0 0.0
2016-Aug-17 06:15N 35°18' E 119°43'0 0.2
2016-Aug-17 05:33N 35°19' E 119°43'0 0.1
2016-Aug-17 04:21N 35°19' E 119°43'0 0.1
2016-Aug-17 03:33N 35°19' E 119°43'0 0.0
2016-Aug-17 02:33N 35°19' E 119°43'0 0.0
2016-Aug-17 00:33N 35°19' E 119°43'0 0.2
2016-Aug-16 23:33N 35°18' E 119°43'0 0.1
2016-Aug-16 22:33N 35°18' E 119°43'0 0.0
2016-Aug-16 20:33N 35°18' E 119°43'0 0.0
2016-Aug-16 18:33N 35°18' E 119°43'0 0.1
2016-Aug-16 17:15N 35°19' E 119°43'0 0.4
2016-Aug-16 16:33N 35°19' E 119°43'7 6.6
2016-Aug-16 15:33N 35°15' E 119°50'  

Dump ship's entire track history